Flight Track Log - Related Links

Times and Time Zones

All times are in EDT time to prevent confusion due to time zone crossing. See the N825ST flight status page for this flight to view local times or setup timezone preferences in your user account.

Time Position Orientation Groundspeed Altitude Reporting Facility
EDT Latitude Longitude Course Direction KTS MPH feet Rate Location/Type
Thu 08:09:21 PM 30.6589 -98.3214 19° North 193 222 5,300  Level Houston Center
Thu 08:10:23 PM 30.7128 -98.2886 28° Northeast 205 236 5,900 290 Climbing Houston Center
Thu 08:11:25 PM 30.7886 -98.2492 24° Northeast 227 261 5,900  Level Houston Center
Thu 08:12:27 PM 30.8575 -98.2158 23° Northeast 246 283 5,900 51 Level Houston Center
Thu 08:13:22 PM 30.9100 -98.1903 23° Northeast 253 291 6,000 1,345 Climbing Fort Worth Center
Thu 08:14:23 PM 30.9686 -98.1611 23° Northeast 245 282 8,500 2,390 Climbing Fort Worth Center
Thu 08:15:25 PM 31.0200 -98.1350 24° Northeast 187 215 10,900 2,081 Climbing Fort Worth Center
Thu 08:16:27 PM 31.0661 -98.1108 24° Northeast 183 211 12,800 1,887 Climbing Fort Worth Center
Thu 08:17:29 PM 31.1103 -98.0883 24° Northeast 176 203 14,800 1,839 Climbing Fort Worth Center
Thu 08:18:31 PM 31.1569 -98.0689 20° North 174 200 16,600 1,065 Climbing Fort Worth Center
Thu 08:19:33 PM 31.2094 -98.0383 26° Northeast 211 243 17,000 129 Climbing Fort Worth Center
Thu 08:21:37 PM 31.3353 -97.9742 24° Northeast 245 282 17,000 -226 Level Fort Worth Center
Thu 08:22:39 PM 31.4097 -97.9367 23° Northeast 242 278 16,300 -927 Descending Fort Worth Center
Thu 08:23:40 PM 31.4797 -97.9017 23° Northeast 267 307 15,100 -1,220 Descending Fort Worth Center
Thu 08:24:42 PM 31.5489 -97.8658 24° Northeast 273 314 13,800 -1,016 Descending Fort Worth Center
Thu 08:25:44 PM 31.6197 -97.8281 24° Northeast 276 318 13,000 -387 Descending Fort Worth Center
Thu 08:26:46 PM 31.6875 -97.7950 23° Northeast 268 308 13,000  Level Fort Worth Center
Thu 08:27:48 PM 31.7536 -97.7597 24° Northeast 265 305 13,000  Level Fort Worth Center
Thu 08:28:50 PM 31.8322 -97.7189 24° Northeast 258 297 13,000  Level Fort Worth Center
Thu 08:29:52 PM 31.8981 -97.6850 24° Northeast 258 297 13,000 -581 Level Fort Worth Center
Thu 08:31:56 PM 32.0403 -97.6125 23° Northeast 275 316 11,200 -1,032 Descending Fort Worth Center
Thu 08:32:58 PM 32.1167 -97.5725 24° Northeast 279 321 9,800 -1,355 Descending Fort Worth Center
Thu 08:34:00 PM 32.1889 -97.5356 23° Northeast 281 323 8,400 -1,355 Descending Fort Worth Center
Thu 08:35:02 PM 32.2589 -97.4969 25° Northeast 279 321 7,000 -1,452 Descending Fort Worth Center
Thu 08:36:04 PM 32.3294 -97.4514 29° Northeast 266 306 5,400 -968 Descending Fort Worth Center
Thu 08:37:06 PM 32.3567 -97.3789 66° East 244 281 5,000 -290 Descending Fort Worth Center
Thu 08:39:10 PM 32.3814 -97.2164 80° East 241 277 4,500 -323 Descending Fort Worth Center
Thu 08:40:12 PM 32.3919 -97.1250 82° East 256 295 4,000 -242 Descending Fort Worth Center
Thu 08:41:14 PM 32.4047 -97.0469 79° East 247 284 4,000  Level Fort Worth Center
Thu 08:42:16 PM 32.4203 -96.9700 77° East 242 278 4,000  Level Fort Worth Center
Thu 08:43:18 PM 32.4783 -96.9161 38° Northeast 246 283 4,000 -246 Level Fort Worth Center
Thu 08:45:07 PM 32.5667 -96.8167 43° Northeast 251 289 3,300 -357 Descending Dallas / Fort Worth TRACON
Thu 08:46:06 PM 32.6333 -96.8000 12° North 248 285 3,000 -97 Descending Dallas / Fort Worth TRACON
Thu 08:48:12 PM 32.7500 -96.7833 North 172 198 3,000 -367 Level Dallas / Fort Worth TRACON
Thu 08:49:06 PM 32.7833 -96.7833 360° North 178 205 1,900 -1,053 Descending Dallas / Fort Worth TRACON
Thu 08:50:06 PM 32.8167 -96.8167 320° Northwest 154 177 1,000 -900 Descending Dallas / Fort Worth TRACON

Login

Don't have an account? Register now (free) for customized features, flight alerts, and more!